createdAt,value
2018-08-22T00:02:30.318Z,99.90
2018-08-22T00:05:09.454Z,99.90
2018-08-22T00:07:44.985Z,99.90
2018-08-22T00:10:19.879Z,99.90
2018-08-22T00:12:56.068Z,99.90
2018-08-22T00:15:31.441Z,99.90
2018-08-22T00:18:06.982Z,99.90
2018-08-22T00:20:43.035Z,99.90
2018-08-22T00:23:18.690Z,99.90
2018-08-22T00:25:54.026Z,99.90
2018-08-22T00:28:29.864Z,99.90
2018-08-22T00:31:05.868Z,99.90
2018-08-22T00:33:41.974Z,99.90
2018-08-22T00:36:18.060Z,99.90
2018-08-22T00:38:53.554Z,99.90
2018-08-22T00:41:29.641Z,99.90
2018-08-22T00:44:08.362Z,99.90
2018-08-22T00:46:43.905Z,99.90
2018-08-22T00:49:19.880Z,99.90
2018-08-22T00:51:55.824Z,99.90
2018-08-22T00:54:30.788Z,99.90
2018-08-22T00:57:07.928Z,99.90
2018-08-22T00:59:43.759Z,99.90
2018-08-22T01:02:19.757Z,99.90
2018-08-22T01:04:54.046Z,99.90
2018-08-22T01:07:30.106Z,99.90
2018-08-22T01:10:06.562Z,99.90
2018-08-22T01:12:43.366Z,99.90
2018-08-22T01:15:17.890Z,99.90
2018-08-22T01:17:54.845Z,99.90
2018-08-22T01:20:30.295Z,99.90
2018-08-22T01:23:05.974Z,99.90
2018-08-22T01:25:41.303Z,99.90
2018-08-22T01:28:16.617Z,99.90
2018-08-22T01:30:51.297Z,99.90
2018-08-22T01:33:26.426Z,99.90
2018-08-22T01:36:00.681Z,99.90
2018-08-22T01:38:35.224Z,99.90
2018-08-22T01:41:10.148Z,99.90
2018-08-22T01:43:44.888Z,99.90
2018-08-22T01:46:19.704Z,99.90
2018-08-22T01:48:54.692Z,99.90
2018-08-22T01:51:29.106Z,99.90
2018-08-22T01:54:04.380Z,99.90
2018-08-22T01:56:38.764Z,99.90
2018-08-22T01:59:13.642Z,99.90
2018-08-22T02:01:48.548Z,99.90
2018-08-22T02:04:23.365Z,99.90
2018-08-22T02:06:58.205Z,99.90
2018-08-22T02:09:33.364Z,99.90
2018-08-22T02:12:08.006Z,99.90
2018-08-22T02:14:43.548Z,99.90
2018-08-22T02:17:18.761Z,99.90
2018-08-22T02:19:57.078Z,99.90
2018-08-22T02:22:32.135Z,99.90
2018-08-22T02:25:07.556Z,99.90
2018-08-22T02:27:42.340Z,99.90
2018-08-22T02:30:16.909Z,99.90
2018-08-22T02:32:51.898Z,99.90
2018-08-22T02:35:26.837Z,99.90
2018-08-22T02:38:01.589Z,99.90
2018-08-22T02:40:37.700Z,99.90
2018-08-22T02:43:13.510Z,99.90
2018-08-22T02:45:48.930Z,99.90
2018-08-22T02:48:25.317Z,99.90
2018-08-22T02:51:01.387Z,99.90
2018-08-22T02:53:36.814Z,99.90
2018-08-22T02:56:12.671Z,99.90
2018-08-22T02:58:48.519Z,99.90
2018-08-22T03:01:24.190Z,99.90
2018-08-22T03:03:59.735Z,99.90
2018-08-22T03:06:35.254Z,99.90
2018-08-22T03:09:11.433Z,99.90
2018-08-22T03:11:47.476Z,99.90
2018-08-22T03:14:22.813Z,99.90
2018-08-22T03:16:58.678Z,99.90
2018-08-22T03:19:35.641Z,99.90
2018-08-22T03:22:09.972Z,99.90
2018-08-22T03:24:45.817Z,99.90
2018-08-22T03:27:21.763Z,99.90
2018-08-22T03:29:57.617Z,99.90
2018-08-22T03:32:33.262Z,99.90
2018-08-22T03:35:11.705Z,99.90
2018-08-22T03:37:47.965Z,99.90
2018-08-22T03:40:26.779Z,99.90
2018-08-22T03:43:01.289Z,99.90
2018-08-22T03:45:39.714Z,99.90
2018-08-22T03:48:18.023Z,99.90
2018-08-22T03:50:53.970Z,99.90
2018-08-22T03:53:29.539Z,99.90
2018-08-22T03:56:05.492Z,99.90
2018-08-22T03:58:42.957Z,99.90
2018-08-22T04:01:19.943Z,99.90
2018-08-22T04:03:56.613Z,99.90
2018-08-22T04:06:32.874Z,99.90
2018-08-22T04:09:09.437Z,99.90
2018-08-22T04:11:46.030Z,99.90
2018-08-22T04:14:22.342Z,99.90
2018-08-22T04:16:58.334Z,99.90
2018-08-22T04:19:34.421Z,99.90
2018-08-22T04:22:11.672Z,99.90
2018-08-22T04:24:48.973Z,99.90
2018-08-22T04:27:26.928Z,99.90
2018-08-22T04:30:03.636Z,99.90
2018-08-22T04:32:42.460Z,99.90
2018-08-22T04:35:18.724Z,99.90
2018-08-22T04:37:56.311Z,99.90
2018-08-22T04:40:31.662Z,99.90
2018-08-22T04:43:10.371Z,99.90
2018-08-22T04:45:46.456Z,99.90
2018-08-22T04:48:23.825Z,99.90
2018-08-22T04:50:59.593Z,99.90
2018-08-22T04:53:35.835Z,99.90
2018-08-22T04:56:12.292Z,99.90
2018-08-22T04:58:46.620Z,99.90
2018-08-22T05:01:24.409Z,99.90
2018-08-22T05:04:02.517Z,99.90
2018-08-22T05:06:40.021Z,99.90
2018-08-22T05:09:16.372Z,99.90
2018-08-22T05:11:51.920Z,99.90
2018-08-22T05:14:27.887Z,99.90
2018-08-22T05:17:04.051Z,99.90
2018-08-22T05:19:40.065Z,99.90
2018-08-22T05:22:15.378Z,99.90
2018-08-22T05:24:51.613Z,99.90
2018-08-22T05:27:28.458Z,99.90
2018-08-22T05:30:04.036Z,99.90
2018-08-22T05:32:42.338Z,99.90
2018-08-22T05:35:20.727Z,99.90
2018-08-22T05:40:15.338Z,99.90
2018-08-22T05:42:53.414Z,99.90
2018-08-22T05:45:30.020Z,99.90
2018-08-22T05:48:07.322Z,99.90
2018-08-22T05:50:43.054Z,99.90
2018-08-22T05:53:18.596Z,99.90
2018-08-22T05:55:54.866Z,99.90
2018-08-22T05:58:30.810Z,99.90
2018-08-22T06:01:07.199Z,99.90
2018-08-22T06:03:42.945Z,99.90
2018-08-22T06:06:18.377Z,99.90
2018-08-22T06:08:54.840Z,99.90
2018-08-22T06:11:31.097Z,99.90
2018-08-22T06:14:07.888Z,99.90
2018-08-22T06:16:43.950Z,99.90
2018-08-22T06:19:20.201Z,99.90
2018-08-22T06:21:56.766Z,99.90
2018-08-22T06:24:32.121Z,99.90
2018-08-22T06:27:08.890Z,99.90
2018-08-22T06:29:45.147Z,99.90
2018-08-22T06:32:21.436Z,99.90
2018-08-22T06:34:57.357Z,99.90
2018-08-22T06:37:33.434Z,99.90
2018-08-22T06:40:10.295Z,99.90
2018-08-22T06:42:46.065Z,99.90
2018-08-22T06:45:23.942Z,99.90
2018-08-22T06:47:59.904Z,99.90
2018-08-22T06:50:37.286Z,99.90
2018-08-22T06:53:12.825Z,99.90
2018-08-22T06:55:48.154Z,99.90
2018-08-22T06:58:24.431Z,99.90
2018-08-22T07:01:00.800Z,99.90
2018-08-22T07:03:37.884Z,99.90
2018-08-22T07:06:13.736Z,99.90
2018-08-22T07:08:50.099Z,99.90
2018-08-22T07:11:26.886Z,99.90
2018-08-22T07:14:06.555Z,99.90
2018-08-22T07:16:44.102Z,99.90
2018-08-22T07:19:19.087Z,99.90
2018-08-22T07:21:55.278Z,99.90
2018-08-22T07:24:32.387Z,99.90
2018-08-22T07:27:08.486Z,99.90
2018-08-22T07:29:44.177Z,99.90
2018-08-22T07:32:20.059Z,99.90
2018-08-22T07:34:57.329Z,99.90
2018-08-22T07:37:32.784Z,99.90
2018-08-22T07:40:13.209Z,99.90
2018-08-22T07:42:48.685Z,99.90
2018-08-22T07:45:25.968Z,99.90
2018-08-22T07:48:02.943Z,99.90
2018-08-22T07:50:43.932Z,99.90
2018-08-22T07:53:20.852Z,99.90
2018-08-22T07:55:57.783Z,99.90
2018-08-22T07:58:35.053Z,99.90
2018-08-22T08:01:12.652Z,99.90
2018-08-22T08:03:47.890Z,99.90
2018-08-22T08:06:24.368Z,99.90
2018-08-22T08:08:59.690Z,99.90
2018-08-22T08:11:37.301Z,99.90
2018-08-22T08:14:12.936Z,99.90
2018-08-22T08:16:48.323Z,99.90
2018-08-22T08:19:24.960Z,99.90
2018-08-22T08:22:01.528Z,99.90
2018-08-22T08:24:40.046Z,99.90
2018-08-22T08:27:18.667Z,99.90
2018-08-22T08:29:57.474Z,99.90
2018-08-22T08:32:33.635Z,99.90
2018-08-22T08:35:11.987Z,99.90
2018-08-22T08:37:47.387Z,99.90
2018-08-22T08:40:26.838Z,99.90
2018-08-22T08:43:03.927Z,99.90
2018-08-22T08:45:41.078Z,99.90
2018-08-22T08:48:17.961Z,99.90
2018-08-22T08:50:55.882Z,99.90
2018-08-22T08:53:31.927Z,99.90
2018-08-22T08:56:10.229Z,99.90
2018-08-22T08:58:47.824Z,99.90
2018-08-22T09:01:24.188Z,99.90
2018-08-22T09:04:00.526Z,99.90
2018-08-22T09:06:38.375Z,99.90
2018-08-22T09:09:15.558Z,99.90
2018-08-22T09:12:01.736Z,99.90
2018-08-22T09:14:41.462Z,99.90
2018-08-22T09:17:20.607Z,99.90
2018-08-22T09:20:00.661Z,99.90
2018-08-22T09:22:37.213Z,99.90
2018-08-22T09:25:13.301Z,99.90
2018-08-22T09:27:49.335Z,99.90
2018-08-22T09:30:25.186Z,99.90
2018-08-22T09:33:02.287Z,99.90
2018-08-22T09:35:37.382Z,99.90
2018-08-22T09:38:12.043Z,99.90
2018-08-22T09:40:48.209Z,99.90
2018-08-22T09:43:27.416Z,99.90
2018-08-22T09:46:06.243Z,99.90
2018-08-22T09:48:45.784Z,99.90
2018-08-22T09:51:24.612Z,99.90
2018-08-22T09:54:01.177Z,99.90
2018-08-22T09:56:39.695Z,99.90
2018-08-22T09:59:16.049Z,99.90
2018-08-22T10:01:54.068Z,99.90
2018-08-22T10:04:30.737Z,99.90
2018-08-22T10:07:07.773Z,99.90
2018-08-22T10:09:45.318Z,99.90
2018-08-22T10:12:25.066Z,99.90
2018-08-22T10:15:02.246Z,99.90
2018-08-22T10:17:40.755Z,99.70
2018-08-22T10:20:17.117Z,99.80
2018-08-22T10:22:53.993Z,99.90
2018-08-22T10:25:29.528Z,99.90
2018-08-22T10:28:06.177Z,99.10
2018-08-22T10:30:43.480Z,98.00
2018-08-22T10:33:18.823Z,98.70
2018-08-22T10:35:55.801Z,98.40
2018-08-22T10:38:32.282Z,98.70
2018-08-22T10:41:10.175Z,97.60
2018-08-22T10:43:46.896Z,97.00
2018-08-22T10:46:25.362Z,96.70
2018-08-22T10:49:03.151Z,97.80
2018-08-22T10:51:40.548Z,98.80
2018-08-22T10:54:21.420Z,95.40
2018-08-22T10:57:02.466Z,95.60
2018-08-22T10:59:38.644Z,94.10
2018-08-22T11:02:15.121Z,93.80
2018-08-22T11:04:49.516Z,93.60
2018-08-22T11:07:23.841Z,93.30
2018-08-22T11:09:58.477Z,92.70
2018-08-22T11:12:33.090Z,91.10
2018-08-22T11:15:08.447Z,92.60
2018-08-22T11:17:42.746Z,91.60
2018-08-22T11:20:17.595Z,91.20
2018-08-22T11:23:03.298Z,90.70
2018-08-22T11:25:49.138Z,89.60
2018-08-22T11:28:35.656Z,90.80
2018-08-22T11:31:24.509Z,90.00
2018-08-22T11:34:11.521Z,84.70
2018-08-22T11:36:59.033Z,86.80
2018-08-22T11:39:35.892Z,85.90
2018-08-22T11:42:11.589Z,83.00
2018-08-22T11:44:47.616Z,83.80
2018-08-22T11:47:26.349Z,83.20
2018-08-22T11:52:47.982Z,80.80
2018-08-22T11:55:24.436Z,81.20
2018-08-22T11:58:02.263Z,82.20
2018-08-22T12:00:40.064Z,82.80
2018-08-22T12:03:17.139Z,79.30
2018-08-22T12:05:54.325Z,78.80
2018-08-22T12:08:30.973Z,75.30
2018-08-22T12:11:06.732Z,76.00
2018-08-22T12:13:42.595Z,76.40
2018-08-22T12:16:19.785Z,75.80
2018-08-22T12:18:55.891Z,76.80
2018-08-22T12:21:32.383Z,76.80
2018-08-22T12:24:08.614Z,77.30
2018-08-22T12:26:43.977Z,76.40
2018-08-22T12:29:21.386Z,77.40
2018-08-22T12:31:57.544Z,76.40
2018-08-22T12:34:35.337Z,77.80
2018-08-22T12:37:12.235Z,75.80
2018-08-22T12:39:47.664Z,71.60
2018-08-22T12:42:25.764Z,73.50
2018-08-22T12:45:01.423Z,72.10
2018-08-22T12:47:39.529Z,71.90
2018-08-22T12:50:15.411Z,73.70
2018-08-22T12:52:53.168Z,74.10
2018-08-22T12:55:29.136Z,71.20
2018-08-22T12:58:04.479Z,70.90
2018-08-22T13:00:42.486Z,72.50
2018-08-22T13:03:17.523Z,71.10
2018-08-22T13:05:56.327Z,70.30
2018-08-22T13:08:32.377Z,69.50
2018-08-22T13:11:08.915Z,69.60
2018-08-22T13:13:44.393Z,73.00
2018-08-22T13:16:20.164Z,67.20
2018-08-22T13:18:58.452Z,67.40
2018-08-22T13:21:33.689Z,66.70
2018-08-22T13:24:10.050Z,67.80
2018-08-22T13:26:46.010Z,68.20
2018-08-22T13:29:22.281Z,66.80
2018-08-22T13:31:58.433Z,66.40
2018-08-22T13:34:33.784Z,66.40
2018-08-22T13:37:10.667Z,65.50
2018-08-22T13:39:46.331Z,67.30
2018-08-22T13:42:22.993Z,64.40
2018-08-22T13:44:58.917Z,63.60
2018-08-22T13:47:34.524Z,65.90
2018-08-22T13:50:12.175Z,65.10
2018-08-22T13:52:47.805Z,63.60
2018-08-22T13:55:26.116Z,65.10
2018-08-22T13:58:02.172Z,67.20
2018-08-22T14:00:38.660Z,67.70
2018-08-22T14:03:15.417Z,69.70
2018-08-22T14:05:50.570Z,67.60
2018-08-22T14:08:27.966Z,64.00
2018-08-22T14:11:03.811Z,64.60
2018-08-22T14:13:40.569Z,69.00
2018-08-22T14:16:16.623Z,69.30
2018-08-22T14:18:53.510Z,70.40
2018-08-22T14:21:29.993Z,69.20
2018-08-22T14:24:08.902Z,70.80
2018-08-22T14:26:45.171Z,71.40
2018-08-22T14:29:22.036Z,73.50
2018-08-22T14:31:57.689Z,73.80
2018-08-22T14:34:33.850Z,71.50
2018-08-22T14:37:12.164Z,68.20
2018-08-22T14:39:47.793Z,66.50
2018-08-22T14:42:24.439Z,65.90
2018-08-22T14:44:59.809Z,64.20
2018-08-22T14:47:36.941Z,66.20
2018-08-22T14:50:14.579Z,66.20
2018-08-22T14:52:49.928Z,66.90
2018-08-22T14:55:27.746Z,70.10
2018-08-22T14:58:04.420Z,72.20
2018-08-22T15:00:41.008Z,71.40
2018-08-22T15:03:18.000Z,72.70
2018-08-22T15:05:53.497Z,71.80
2018-08-22T15:08:29.626Z,74.40
2018-08-22T15:11:04.798Z,73.00
2018-08-22T15:13:45.422Z,75.10
2018-08-22T15:16:22.436Z,76.30
2018-08-22T15:18:58.097Z,75.40
2018-08-22T15:21:36.502Z,79.30
2018-08-22T15:24:13.576Z,79.80
2018-08-22T15:26:51.595Z,78.20
2018-08-22T15:29:27.848Z,79.30
2018-08-22T15:32:03.494Z,77.10
2018-08-22T15:34:49.798Z,88.60
2018-08-22T15:37:26.547Z,92.70
2018-08-22T15:40:03.538Z,94.80
2018-08-22T15:42:42.764Z,96.40
2018-08-22T15:45:19.228Z,99.90
2018-08-22T15:47:56.408Z,99.90
2018-08-22T15:50:32.587Z,99.90
2018-08-22T15:53:09.934Z,99.90
2018-08-22T15:55:44.889Z,99.90
2018-08-22T15:58:20.049Z,99.90
2018-08-22T16:00:58.247Z,99.90
2018-08-22T16:03:33.667Z,99.90
2018-08-22T16:06:09.116Z,99.90
2018-08-22T16:08:45.840Z,99.90
2018-08-22T16:11:22.157Z,99.90
2018-08-22T16:13:58.009Z,99.90
2018-08-22T16:16:34.209Z,99.90
2018-08-22T16:19:10.830Z,99.90
2018-08-22T16:21:46.598Z,99.90
2018-08-22T16:24:25.300Z,99.90
2018-08-22T16:27:00.098Z,99.90
2018-08-22T16:29:34.916Z,99.90
2018-08-22T16:32:09.594Z,99.90
2018-08-22T16:34:44.615Z,99.90
2018-08-22T16:37:23.336Z,99.90
2018-08-22T16:39:57.991Z,99.90
2018-08-22T16:42:37.678Z,99.90
2018-08-22T16:45:13.187Z,99.90
2018-08-22T16:47:48.082Z,99.90
2018-08-22T16:52:47.937Z,99.90
2018-08-22T16:55:24.578Z,99.90
2018-08-22T16:58:00.359Z,99.90
2018-08-22T17:00:41.635Z,99.90
2018-08-22T17:03:16.607Z,99.90
2018-08-22T17:05:55.074Z,99.90
2018-08-22T17:08:30.336Z,99.90
2018-08-22T17:11:06.240Z,99.90
2018-08-22T17:13:52.385Z,99.90
2018-08-22T17:16:27.604Z,99.90
2018-08-22T17:19:03.026Z,99.90
2018-08-22T17:21:39.828Z,99.90
2018-08-22T17:24:16.341Z,99.90
2018-08-22T17:26:52.744Z,99.90
2018-08-22T17:29:29.182Z,99.90
2018-08-22T17:32:06.073Z,99.90
2018-08-22T17:34:43.780Z,99.90
2018-08-22T17:37:19.169Z,99.90
2018-08-22T17:39:54.641Z,99.90
2018-08-22T17:42:29.451Z,99.90
2018-08-22T17:45:04.613Z,99.90
2018-08-22T17:47:40.093Z,99.90
2018-08-22T17:50:15.068Z,99.90
2018-08-22T17:52:49.956Z,99.90
2018-08-22T17:55:24.988Z,99.90
2018-08-22T17:57:59.763Z,99.90
2018-08-22T18:00:36.053Z,99.90
2018-08-22T18:03:13.436Z,99.90
2018-08-22T18:05:48.998Z,99.90
2018-08-22T18:08:25.545Z,99.90
2018-08-22T18:11:01.915Z,99.90
2018-08-22T18:13:40.440Z,99.90
2018-08-22T18:16:17.824Z,99.90
2018-08-22T18:18:55.856Z,99.90
2018-08-22T18:21:38.539Z,99.90
2018-08-22T18:24:15.633Z,99.90
2018-08-22T18:26:51.431Z,99.90
2018-08-22T18:29:27.339Z,99.90
2018-08-22T18:32:02.693Z,99.90
2018-08-22T18:34:51.753Z,99.90
2018-08-22T18:37:29.016Z,99.90
2018-08-22T18:40:16.650Z,99.90
2018-08-22T18:42:57.519Z,99.90
2018-08-22T18:45:38.392Z,99.90
2018-08-22T18:48:21.424Z,99.90
2018-08-22T18:51:09.536Z,99.90
2018-08-22T18:53:46.754Z,99.90
2018-08-22T18:56:25.127Z,99.90
2018-08-22T18:59:33.167Z,99.90
2018-08-22T19:02:09.195Z,99.90
2018-08-22T19:04:45.519Z,99.90
2018-08-22T19:07:22.108Z,99.90
2018-08-22T19:09:58.658Z,99.90
2018-08-22T19:12:35.416Z,99.90
2018-08-22T19:15:11.352Z,99.90
2018-08-22T19:17:46.246Z,99.90
2018-08-22T19:20:24.695Z,99.90
2018-08-22T19:23:02.266Z,99.90
2018-08-22T19:25:45.647Z,99.90
2018-08-22T19:28:23.410Z,99.90
2018-08-22T19:30:59.565Z,99.90
2018-08-22T19:33:35.639Z,99.90
2018-08-22T19:36:11.486Z,99.90
2018-08-22T19:38:47.968Z,99.90
2018-08-22T19:41:27.312Z,99.90
2018-08-22T19:44:02.910Z,99.90
2018-08-22T19:46:38.357Z,99.90
2018-08-22T19:49:14.102Z,99.90
2018-08-22T19:51:50.377Z,99.90
2018-08-22T19:54:26.450Z,99.90
2018-08-22T19:57:00.959Z,99.90
2018-08-22T19:59:36.528Z,99.90
2018-08-22T20:02:12.159Z,99.90
2018-08-22T20:04:48.109Z,99.90
2018-08-22T20:07:25.518Z,99.90
2018-08-22T20:10:02.102Z,99.90
2018-08-22T20:12:49.292Z,99.90
2018-08-22T20:15:27.376Z,99.90
2018-08-22T20:18:03.853Z,99.90
2018-08-22T20:20:39.605Z,99.90
2018-08-22T20:23:17.266Z,99.90
2018-08-22T20:25:54.795Z,99.90
2018-08-22T20:28:31.920Z,99.90
2018-08-22T20:31:13.055Z,99.90
2018-08-22T20:34:00.407Z,99.90
2018-08-22T20:36:35.463Z,99.90
2018-08-22T20:39:12.852Z,99.90
2018-08-22T20:41:49.622Z,99.90
2018-08-22T20:44:23.992Z,99.90
2018-08-22T20:46:58.776Z,99.90
2018-08-22T20:49:34.138Z,99.90
2018-08-22T20:52:09.670Z,99.90
2018-08-22T20:54:47.345Z,99.90
2018-08-22T20:57:23.233Z,99.90
2018-08-22T20:59:58.276Z,99.90
2018-08-22T21:02:34.020Z,99.90
2018-08-22T21:05:09.482Z,99.90
2018-08-22T21:07:45.870Z,99.90
2018-08-22T21:10:21.027Z,99.90
2018-08-22T21:12:55.548Z,99.90
2018-08-22T21:15:31.182Z,99.90
2018-08-22T21:18:08.825Z,99.90
2018-08-22T21:20:43.500Z,99.90
2018-08-22T21:23:18.197Z,99.90
2018-08-22T21:25:52.653Z,99.90
2018-08-22T21:28:32.639Z,99.90
2018-08-22T21:31:07.897Z,99.90
2018-08-22T21:33:42.612Z,99.90
2018-08-22T21:36:17.702Z,99.90
2018-08-22T21:38:52.937Z,99.90
2018-08-22T21:41:28.414Z,99.90
2018-08-22T21:44:03.248Z,99.90
2018-08-22T21:46:38.911Z,99.90
2018-08-22T21:49:22.192Z,99.90
2018-08-22T21:51:59.742Z,99.90
2018-08-22T21:54:34.965Z,99.90
2018-08-22T21:57:10.128Z,99.90
2018-08-22T21:59:44.674Z,99.90
2018-08-22T22:02:20.163Z,99.90
2018-08-22T22:04:55.167Z,99.90
2018-08-22T22:07:31.653Z,99.90
2018-08-22T22:10:11.664Z,99.90
2018-08-22T22:12:47.346Z,99.90
2018-08-22T22:15:27.582Z,99.90
2018-08-22T22:18:02.412Z,99.90
2018-08-22T22:20:37.801Z,99.90
2018-08-22T22:23:13.385Z,99.90
2018-08-22T22:25:48.452Z,99.90
2018-08-22T22:28:29.439Z,99.90
2018-08-22T22:31:07.858Z,99.90
2018-08-22T22:33:51.890Z,99.90
2018-08-22T22:36:28.965Z,99.90
2018-08-22T22:39:04.663Z,99.90
2018-08-22T22:41:41.531Z,99.90
2018-08-22T22:44:17.878Z,99.90
2018-08-22T22:46:53.076Z,99.90
2018-08-22T22:49:29.064Z,99.90
2018-08-22T22:52:17.198Z,99.90
2018-08-22T22:54:56.239Z,99.90
2018-08-22T22:57:33.917Z,99.90
2018-08-22T23:00:13.300Z,99.90
2018-08-22T23:02:54.388Z,99.90
2018-08-22T23:05:32.227Z,99.90
2018-08-22T23:08:10.849Z,99.90
2018-08-22T23:10:48.030Z,99.90
2018-08-22T23:13:29.162Z,99.90
2018-08-22T23:16:04.658Z,99.90
2018-08-22T23:18:41.938Z,99.90
2018-08-22T23:21:18.318Z,99.90
2018-08-22T23:23:56.002Z,99.90
2018-08-22T23:26:33.393Z,99.90
2018-08-22T23:29:14.081Z,99.90
2018-08-22T23:31:51.356Z,99.90
2018-08-22T23:34:27.717Z,99.90
2018-08-22T23:37:03.413Z,99.90
2018-08-22T23:39:40.524Z,99.90
2018-08-22T23:42:16.793Z,99.90
2018-08-22T23:44:54.283Z,99.90
2018-08-22T23:47:30.775Z,99.90
2018-08-22T23:50:05.785Z,99.90
2018-08-22T23:52:47.885Z,99.90
2018-08-22T23:55:26.300Z,99.90
2018-08-22T23:58:02.138Z,99.90
